Flight Track Log - Related Links

Times and Time Zones

All times are in EDT time to prevent confusion due to time zone crossing. See the SWA1086 flight status page for this flight to view local times or setup timezone preferences in your user account.

Time Position Orientation Groundspeed Altitude Reporting Facility
EDT Latitude Longitude Course Direction KTS MPH feet Rate Location/Type
Mon 11:12:57 AM 35.3769 -97.6094 244° Southwest 131 151 2,500  Level Fort Worth Center
Mon 11:14:04 AM 35.3558 -97.6631 244° Southwest 217 250 6,400 3,628 Climbing Fort Worth Center
Mon 11:16:32 AM 35.5583 -97.6742 357° North 324 373 15,500 3,657 Climbing Kansas City Center
Mon 11:17:34 AM 35.6611 -97.6692 North 358 412 19,200 3,393 Climbing Kansas City Center
Mon 11:18:34 AM 35.7658 -97.6236 19° North 387 445 22,400 2,754 Climbing Kansas City Center
Mon 11:19:36 AM 35.8517 -97.5833 21° North 402 463 24,800 1,728 Climbing Kansas City Center
Mon 11:20:39 AM 35.9811 -97.5225 21° North 411 473 26,000 1,824 Climbing Kansas City Center
Mon 11:21:41 AM 36.0883 -97.4717 21° North 412 474 28,600 2,459 Climbing Kansas City Center
Mon 11:22:41 AM 36.1903 -97.4253 20° North 399 459 31,000 1,161 Climbing Kansas City Center
Mon 11:23:45 AM 36.3117 -97.3511 26° Northeast 405 466 31,000  Level Kansas City Center
Mon 11:24:46 AM 36.4103 -97.2756 32° Northeast 415 478 31,000  Level Kansas City Center
Mon 11:25:50 AM 36.5081 -97.2033 31° Northeast 412 474 31,000  Level Kansas City Center
Mon 11:26:51 AM 36.6064 -97.1294 31° Northeast 412 474 31,000  Level Kansas City Center
Mon 11:27:51 AM 36.7147 -97.0478 31° Northeast 408 470 31,000  Level Kansas City Center
Mon 11:28:55 AM 36.8131 -96.9744 31° Northeast 408 470 31,000  Level Kansas City Center
Mon 11:29:56 AM 36.9050 -96.9050 31° Northeast 411 473 31,000  Level Kansas City Center
Mon 11:31:00 AM 37.0028 -96.8314 31° Northeast 411 473 31,000  Level Kansas City Center
Mon 11:32:00 AM 37.1208 -96.7408 31° Northeast 413 475 31,000  Level Kansas City Center
Mon 11:33:04 AM 37.2181 -96.6658 32° Northeast 413 475 31,000  Level Kansas City Center
Mon 11:34:06 AM 37.3156 -96.5911 31° Northeast 412 474 31,000  Level Kansas City Center
Mon 11:35:06 AM 37.4136 -96.5167 31° Northeast 412 474 31,000  Level Kansas City Center
Mon 11:36:09 AM 37.5217 -96.4333 31° Northeast 411 473 31,000  Level Kansas City Center
Mon 11:37:09 AM 37.6231 -96.3806 22° Northeast 399 459 31,000  Level Kansas City Center
Mon 11:38:13 AM 37.7394 -96.3433 14° North 399 459 31,000 -476 Level Kansas City Center
Mon 11:39:15 AM 37.8456 -96.3100 14° North 394 453 30,000 -960 Descending Kansas City Center
Mon 11:40:18 AM 37.9522 -96.2789 13° North 394 453 29,000 -930 Descending Kansas City Center
Mon 11:42:22 AM 38.1492 -96.1439 28° Northeast 429 494 27,100 -978 Descending Kansas City Center
Mon 11:43:22 AM 38.2508 -96.0208 44° Northeast 425 489 26,000 -1,016 Descending Kansas City Center
Mon 11:44:26 AM 38.3372 -95.9322 39° Northeast 419 482 25,000 -1,000 Descending Kansas City Center
Mon 11:45:28 AM 38.4353 -95.8250 41° Northeast 416 479 23,900 -1,033 Descending Kansas City Center
Mon 11:46:28 AM 38.5194 -95.7333 40° Northeast 416 479 22,900 -919 Descending Kansas City Center
Mon 11:47:32 AM 38.6033 -95.6422 40° Northeast 414 476 22,000 -1,440 Descending Kansas City Center
Mon 11:48:33 AM 38.6986 -95.5386 40° Northeast 403 464 19,900 -2,016 Descending Kansas City Center
Mon 11:49:34 AM 38.7786 -95.4497 41° Northeast 398 458 17,900 -1,632 Descending Kansas City Center
Mon 11:50:38 AM 38.8644 -95.3392 45° Northeast 393 452 16,500 -1,104 Descending Kansas City Center
Mon 11:51:39 AM 38.9311 -95.2444 48° Northeast 378 435 15,600 -1,475 Descending Kansas City Center
Mon 11:52:40 AM 39.0092 -95.1364 47° Northeast 373 429 13,500 -1,742 Descending Kansas City Center
Mon 11:53:43 AM 39.0728 -95.0417 49° Northeast 371 427 12,000 -823 Descending Kansas City Center
Mon 11:54:44 AM 39.1397 -94.9461 48° Northeast 323 372 11,800 -240 Descending Kansas City Center
Mon 11:55:48 AM 39.1939 -94.8725 46° Northeast 294 338 11,500 -857 Descending Kansas City Center
Mon 11:56:50 AM 39.2747 -94.8450 15° North 271 312 10,000 -1,180 Descending Kansas City Center
Mon 11:57:50 AM 39.3447 -94.8250 12° North 269 310 9,100 -829 Descending Kansas City Center
Mon 11:58:53 AM 39.4194 -94.8047 12° North 246 283 8,300 -1,742 Descending Kansas City Center
Mon 11:59:54 AM 39.4794 -94.7756 21° North 251 289 5,500 -2,323 Descending Kansas City Center
Mon 12:00:57 PM 39.4542 -94.7047 115° Southeast 205 236 3,500 -1,258 Descending Kansas City Center
Mon 12:01:58 PM 39.4125 -94.6989 174° South 157 181 2,900 -720 Descending Kansas City Center
Mon 12:03:02 PM 39.3703 -94.7064 188° South 140 161 2,000 -726 Descending Kansas City Center
Mon 12:04:02 PM 39.3392 -94.7158 193° South 123 142 1,400 -492 Descending Kansas City Center
Mon 12:05:04 PM 39.3083 -94.7244 192° South 120 138 1,000 -387 Descending Kansas City Center

Login

Don't have an account? Register now (free) for customized features, flight alerts, and more!